createdAt,value
2022-10-02T00:00:01.439Z,0.00
2022-10-02T00:00:57.322Z,0.00
2022-10-02T00:01:52.500Z,0.00
2022-10-02T00:02:47.929Z,0.00
2022-10-02T00:03:43.569Z,0.00
2022-10-02T00:04:38.963Z,0.00
2022-10-02T00:05:34.535Z,0.00
2022-10-02T00:06:29.702Z,0.00
2022-10-02T00:07:25.528Z,0.00
2022-10-02T00:08:24.068Z,0.00
2022-10-02T00:09:16.015Z,0.00
2022-10-02T00:10:11.203Z,0.00
2022-10-02T00:11:07.861Z,0.00
2022-10-02T00:12:02.971Z,0.00
2022-10-02T00:12:58.788Z,0.00
2022-10-02T00:13:53.875Z,0.00
2022-10-02T00:14:49.072Z,0.00
2022-10-02T00:15:44.795Z,0.00
2022-10-02T00:16:40.413Z,0.00
2022-10-02T00:17:35.745Z,0.00
2022-10-02T00:18:30.901Z,0.00
2022-10-02T00:19:26.240Z,0.00
2022-10-02T00:20:22.084Z,0.00
2022-10-02T00:21:17.276Z,0.00
2022-10-02T00:22:12.555Z,0.00
2022-10-02T00:23:07.723Z,0.00
2022-10-02T00:24:03.613Z,0.00
2022-10-02T00:24:58.647Z,0.00
2022-10-02T00:25:54.074Z,0.00
2022-10-02T00:26:50.006Z,0.00
2022-10-02T00:27:45.208Z,0.00
2022-10-02T00:28:41.074Z,0.00
2022-10-02T00:29:36.235Z,0.00
2022-10-02T00:30:31.556Z,0.00
2022-10-02T00:31:27.289Z,0.00
2022-10-02T00:32:22.580Z,0.00
2022-10-02T00:33:17.619Z,0.00
2022-10-02T00:34:15.366Z,0.00
2022-10-02T00:35:09.461Z,0.00
2022-10-02T00:36:05.219Z,0.00
2022-10-02T00:37:00.393Z,0.00
2022-10-02T00:37:55.614Z,0.00
2022-10-02T00:38:51.330Z,0.00
2022-10-02T00:39:46.502Z,0.00
2022-10-02T00:40:41.661Z,0.00
2022-10-02T00:41:36.779Z,0.00
2022-10-02T00:42:32.106Z,0.00
2022-10-02T00:43:27.279Z,0.00
2022-10-02T00:44:22.565Z,0.00
2022-10-02T00:45:19.067Z,0.00
2022-10-02T00:46:14.117Z,0.00
2022-10-02T00:47:09.406Z,0.00
2022-10-02T00:48:05.027Z,0.00
2022-10-02T00:49:00.181Z,0.00
2022-10-02T00:49:55.395Z,0.00
2022-10-02T00:50:50.570Z,0.00
2022-10-02T00:51:45.952Z,0.00
2022-10-02T00:52:40.991Z,0.00
2022-10-02T00:53:37.534Z,0.00
2022-10-02T00:54:32.727Z,0.00
2022-10-02T00:55:27.954Z,0.00
2022-10-02T00:56:27.158Z,0.00
2022-10-02T00:57:22.258Z,0.00
2022-10-02T00:58:17.709Z,0.00
2022-10-02T00:59:12.753Z,0.00
2022-10-02T01:00:07.802Z,0.00
2022-10-02T01:01:02.925Z,0.00
2022-10-02T01:01:57.999Z,0.00
2022-10-02T01:02:53.007Z,0.00
2022-10-02T01:03:48.104Z,0.00
2022-10-02T01:04:43.243Z,0.00
2022-10-02T01:05:38.521Z,0.00
2022-10-02T01:06:33.824Z,0.00
2022-10-02T01:07:28.789Z,0.00
2022-10-02T01:08:24.000Z,0.00
2022-10-02T01:09:19.150Z,0.00
2022-10-02T01:10:14.195Z,0.00
2022-10-02T01:11:09.263Z,0.00
2022-10-02T01:12:04.305Z,0.00
2022-10-02T01:12:59.323Z,0.00
2022-10-02T01:13:54.442Z,0.00
2022-10-02T01:14:49.464Z,0.00
2022-10-02T01:15:44.560Z,0.00
2022-10-02T01:16:39.866Z,0.00
2022-10-02T01:17:34.566Z,0.00
2022-10-02T01:18:29.637Z,0.00
2022-10-02T01:19:24.671Z,0.00
2022-10-02T01:20:19.982Z,0.00
2022-10-02T01:21:15.014Z,0.00
2022-10-02T01:22:10.167Z,0.00
2022-10-02T01:23:05.357Z,0.00
2022-10-02T01:24:00.700Z,0.00
2022-10-02T01:24:55.946Z,0.00
2022-10-02T01:25:51.095Z,0.00
2022-10-02T01:26:46.147Z,0.00
2022-10-02T01:27:41.354Z,0.00
2022-10-02T01:28:36.432Z,0.00
2022-10-02T01:29:31.494Z,0.00
2022-10-02T01:30:26.555Z,0.00
2022-10-02T01:31:21.597Z,0.00
2022-10-02T01:32:16.800Z,0.00
2022-10-02T01:33:11.970Z,0.00
2022-10-02T01:34:07.041Z,0.00
2022-10-02T01:35:02.117Z,0.00
2022-10-02T01:35:57.134Z,0.00
2022-10-02T01:36:52.243Z,0.00
2022-10-02T01:37:47.280Z,0.00
2022-10-02T01:38:42.306Z,0.00
2022-10-02T01:39:37.320Z,0.00
2022-10-02T01:40:32.448Z,0.00
2022-10-02T01:41:27.449Z,0.00
2022-10-02T01:42:22.532Z,0.00
2022-10-02T01:43:17.575Z,0.00
2022-10-02T01:44:12.626Z,0.00
2022-10-02T01:45:07.635Z,0.00
2022-10-02T01:46:02.772Z,0.00
2022-10-02T01:46:57.683Z,0.00
2022-10-02T01:47:52.845Z,0.00
2022-10-02T01:48:47.994Z,0.00
2022-10-02T01:49:43.731Z,0.00
2022-10-02T01:50:38.989Z,0.00
2022-10-02T01:51:34.308Z,0.00
2022-10-02T01:52:29.398Z,0.00
2022-10-02T01:53:25.256Z,0.00
2022-10-02T01:54:20.317Z,0.00
2022-10-02T01:55:15.514Z,0.00
2022-10-02T01:56:11.483Z,0.00
2022-10-02T01:57:06.676Z,0.00
2022-10-02T01:58:01.930Z,0.00
2022-10-02T01:58:58.345Z,0.00
2022-10-02T01:59:53.543Z,0.00
2022-10-02T02:00:49.353Z,0.00
2022-10-02T02:01:44.759Z,0.00
2022-10-02T02:02:39.951Z,0.00
2022-10-02T02:03:35.413Z,0.00
2022-10-02T02:04:30.763Z,0.00
2022-10-02T02:05:26.408Z,0.00
2022-10-02T02:06:21.721Z,0.00
2022-10-02T02:07:17.012Z,0.00
2022-10-02T02:08:12.617Z,0.00
2022-10-02T02:09:07.766Z,0.00
2022-10-02T02:10:03.036Z,0.00
2022-10-02T02:10:59.286Z,0.00
2022-10-02T02:11:55.236Z,0.00
2022-10-02T02:12:50.262Z,0.00
2022-10-02T02:13:45.586Z,0.00
2022-10-02T02:14:40.826Z,0.00
2022-10-02T02:15:36.506Z,0.00
2022-10-02T02:16:31.831Z,0.00
2022-10-02T02:17:27.578Z,0.00
2022-10-02T02:18:22.605Z,0.00
2022-10-02T02:19:18.005Z,0.00
2022-10-02T02:20:13.613Z,0.00
2022-10-02T02:21:08.935Z,0.00
2022-10-02T02:22:04.089Z,0.00
2022-10-02T02:23:00.454Z,0.00
2022-10-02T02:23:56.027Z,0.00
2022-10-02T02:24:51.718Z,0.00
2022-10-02T02:25:46.766Z,0.00
2022-10-02T02:26:41.934Z,0.00
2022-10-02T02:27:37.866Z,0.00
2022-10-02T02:28:33.031Z,0.00
2022-10-02T02:29:29.021Z,0.00
2022-10-02T02:30:24.052Z,0.00
2022-10-02T02:31:19.252Z,0.00
2022-10-02T02:32:15.061Z,0.00
2022-10-02T02:33:10.237Z,0.00
2022-10-02T02:34:05.519Z,0.00
2022-10-02T02:35:01.931Z,0.00
2022-10-02T02:35:56.974Z,0.00
2022-10-02T02:36:52.718Z,0.00
2022-10-02T02:37:47.966Z,0.00
2022-10-02T02:38:43.278Z,0.00
2022-10-02T02:39:38.881Z,0.00
2022-10-02T02:40:34.049Z,0.00
2022-10-02T02:41:30.122Z,0.00
2022-10-02T02:42:26.412Z,0.00
2022-10-02T02:43:20.945Z,0.00
2022-10-02T02:44:16.560Z,0.00
2022-10-02T02:45:11.721Z,0.00
2022-10-02T02:46:07.080Z,0.00
2022-10-02T02:47:03.289Z,0.00
2022-10-02T02:47:58.492Z,0.00
2022-10-02T02:48:54.354Z,0.00
2022-10-02T02:49:49.526Z,0.00
2022-10-02T02:50:44.737Z,0.00
2022-10-02T02:51:40.672Z,0.00
2022-10-02T02:52:35.782Z,0.00
2022-10-02T02:53:30.950Z,0.00
2022-10-02T02:54:26.083Z,0.00
2022-10-02T02:55:21.242Z,0.00
2022-10-02T02:56:17.586Z,0.00
2022-10-02T02:57:12.917Z,0.00
2022-10-02T02:58:08.810Z,0.00
2022-10-02T02:59:03.986Z,0.00
2022-10-02T02:59:59.290Z,0.00
2022-10-02T03:00:55.089Z,0.00
2022-10-02T03:01:50.434Z,0.00
2022-10-02T03:02:46.267Z,0.00
2022-10-02T03:03:41.388Z,0.00
2022-10-02T03:04:36.731Z,0.00
2022-10-02T03:05:32.438Z,0.00
2022-10-02T03:06:27.634Z,0.00
2022-10-02T03:07:22.764Z,0.00
2022-10-02T03:08:19.188Z,0.00
2022-10-02T03:09:14.477Z,0.00
2022-10-02T03:10:09.627Z,0.00
2022-10-02T03:11:04.789Z,0.00
2022-10-02T03:12:02.397Z,0.00
2022-10-02T03:12:57.722Z,0.00
2022-10-02T03:13:52.795Z,0.00
2022-10-02T03:14:48.547Z,0.00
2022-10-02T03:15:43.801Z,0.00
2022-10-02T03:16:39.369Z,0.00
2022-10-02T03:17:34.253Z,0.00
2022-10-02T03:18:29.298Z,0.00
2022-10-02T03:19:24.333Z,0.00
2022-10-02T03:20:19.372Z,0.00
2022-10-02T03:21:14.491Z,0.00
2022-10-02T03:22:09.520Z,0.00
2022-10-02T03:23:04.640Z,0.00
2022-10-02T03:23:59.699Z,0.00
2022-10-02T03:24:54.825Z,0.00
2022-10-02T03:25:49.851Z,0.00
2022-10-02T03:26:44.890Z,0.00
2022-10-02T03:27:39.929Z,0.00
2022-10-02T03:28:55.096Z,0.00
2022-10-02T03:29:31.705Z,0.00
2022-10-02T03:30:28.820Z,0.00
2022-10-02T03:31:24.163Z,0.00
2022-10-02T03:32:19.194Z,0.00
2022-10-02T03:33:14.330Z,0.00
2022-10-02T03:34:09.465Z,0.00
2022-10-02T03:35:04.458Z,0.00
2022-10-02T03:35:59.486Z,0.00
2022-10-02T03:36:54.467Z,0.00
2022-10-02T03:37:49.595Z,0.00
2022-10-02T03:38:45.018Z,0.00
2022-10-02T03:39:39.642Z,0.00
2022-10-02T03:40:34.723Z,0.00
2022-10-02T03:41:29.912Z,0.00
2022-10-02T03:42:29.798Z,0.00
2022-10-02T03:43:24.856Z,0.00
2022-10-02T03:44:20.150Z,0.00
2022-10-02T03:45:32.795Z,0.00
2022-10-02T03:46:12.075Z,0.00
2022-10-02T03:47:06.461Z,0.00
2022-10-02T03:48:01.491Z,0.00
2022-10-02T03:48:56.644Z,0.00
2022-10-02T03:49:51.602Z,0.00
2022-10-02T03:50:46.648Z,0.00
2022-10-02T03:51:41.711Z,0.00
2022-10-02T03:52:36.778Z,0.00
2022-10-02T03:53:31.810Z,0.00
2022-10-02T03:54:32.441Z,0.00
2022-10-02T03:55:27.590Z,0.00
2022-10-02T03:56:23.028Z,0.00
2022-10-02T03:57:18.798Z,0.00
2022-10-02T03:58:13.978Z,0.00
2022-10-02T03:59:09.146Z,0.00
2022-10-02T04:00:05.788Z,0.00
2022-10-02T04:01:00.823Z,0.00
2022-10-02T04:01:56.753Z,0.00
2022-10-02T04:02:52.040Z,0.00
2022-10-02T04:03:47.155Z,0.00
2022-10-02T04:04:42.891Z,0.00
2022-10-02T04:05:38.094Z,0.00
2022-10-02T04:06:34.374Z,0.00
2022-10-02T04:07:29.121Z,0.00
2022-10-02T04:08:24.335Z,0.00
2022-10-02T04:09:20.834Z,0.00
2022-10-02T04:10:16.148Z,0.00
2022-10-02T04:11:11.189Z,0.00
2022-10-02T04:12:07.734Z,0.00
2022-10-02T04:13:02.752Z,0.00
2022-10-02T04:13:58.864Z,0.00
2022-10-02T04:14:54.064Z,0.00
2022-10-02T04:15:49.272Z,0.00
2022-10-02T04:16:44.975Z,0.00
2022-10-02T04:17:40.200Z,0.00
2022-10-02T04:18:35.921Z,0.00
2022-10-02T04:19:31.143Z,0.00
2022-10-02T04:20:26.470Z,0.00
2022-10-02T04:21:22.561Z,0.00
2022-10-02T04:22:17.621Z,0.00
2022-10-02T04:23:12.736Z,0.00
2022-10-02T04:24:09.312Z,0.00
2022-10-02T04:25:04.492Z,0.00
2022-10-02T04:26:00.458Z,0.00
2022-10-02T04:26:55.783Z,0.00
2022-10-02T04:27:51.020Z,0.00
2022-10-02T04:28:46.447Z,0.00
2022-10-02T04:29:41.861Z,0.00
2022-10-02T04:30:37.810Z,0.00
2022-10-02T04:31:32.892Z,0.00
2022-10-02T04:32:28.067Z,0.00
2022-10-02T04:33:23.914Z,0.00
2022-10-02T04:34:19.090Z,0.00
2022-10-02T04:35:14.370Z,0.00
2022-10-02T04:36:10.863Z,0.00
2022-10-02T04:37:06.019Z,0.00
2022-10-02T04:38:02.040Z,0.00
2022-10-02T04:38:57.311Z,0.00
2022-10-02T04:39:52.493Z,0.00
2022-10-02T04:40:48.263Z,0.00
2022-10-02T04:41:43.433Z,0.00
2022-10-02T04:42:38.694Z,0.00
2022-10-02T04:43:33.859Z,0.00
2022-10-02T04:44:29.852Z,0.00
2022-10-02T04:45:25.056Z,0.00
2022-10-02T04:46:20.335Z,0.00
2022-10-02T04:47:16.622Z,0.00
2022-10-02T04:48:11.802Z,0.00
2022-10-02T04:49:07.678Z,1.00
2022-10-02T04:50:02.827Z,0.00
2022-10-02T04:50:58.290Z,0.00
2022-10-02T04:51:53.943Z,1.00
2022-10-02T04:52:49.108Z,1.00
2022-10-02T04:53:44.994Z,1.00
2022-10-02T04:54:40.169Z,2.00
2022-10-02T04:55:35.496Z,2.00
2022-10-02T04:56:31.379Z,2.00
2022-10-02T04:57:26.434Z,3.00
2022-10-02T04:58:21.693Z,3.00
2022-10-02T04:59:17.956Z,3.00
2022-10-02T05:00:13.058Z,4.00
2022-10-02T05:01:08.488Z,5.00
2022-10-02T05:02:03.598Z,6.00
2022-10-02T05:02:58.905Z,6.00
2022-10-02T05:03:53.951Z,6.00
2022-10-02T05:04:49.823Z,8.00
2022-10-02T05:05:44.982Z,8.00
2022-10-02T05:06:40.102Z,10.00
2022-10-02T05:07:35.314Z,11.00
2022-10-02T05:08:31.626Z,12.00
2022-10-02T05:09:28.560Z,13.00
2022-10-02T05:10:22.252Z,17.00
2022-10-02T05:11:21.385Z,23.00
2022-10-02T05:12:16.616Z,28.00
2022-10-02T05:13:11.858Z,31.00
2022-10-02T05:14:07.099Z,33.00
2022-10-02T05:15:02.175Z,36.00
2022-10-02T05:15:57.301Z,41.00
2022-10-02T05:16:52.319Z,42.00
2022-10-02T05:17:47.459Z,46.00
2022-10-02T05:18:42.439Z,55.00
2022-10-02T05:19:37.554Z,61.00
2022-10-02T05:20:32.518Z,68.00
2022-10-02T05:21:27.607Z,68.00
2022-10-02T05:22:22.683Z,75.00
2022-10-02T05:23:17.826Z,76.00
2022-10-02T05:24:13.021Z,82.00
2022-10-02T05:25:08.114Z,91.00
2022-10-02T05:26:03.195Z,92.00
2022-10-02T05:26:58.292Z,105.00
2022-10-02T05:27:53.362Z,118.00
2022-10-02T05:28:48.393Z,129.00
2022-10-02T05:29:43.364Z,137.00
2022-10-02T05:30:38.496Z,154.00
2022-10-02T05:31:33.662Z,153.00
2022-10-02T05:32:28.663Z,155.00
2022-10-02T05:33:23.763Z,161.00
2022-10-02T05:34:18.915Z,179.00
2022-10-02T05:35:14.132Z,202.00
2022-10-02T05:36:09.182Z,213.00
2022-10-02T05:37:05.333Z,219.00
2022-10-02T05:38:00.418Z,210.00
2022-10-02T05:38:55.674Z,227.00
2022-10-02T05:39:50.661Z,243.00
2022-10-02T05:40:45.704Z,249.00
2022-10-02T05:41:40.764Z,266.00
2022-10-02T05:42:38.202Z,231.00
2022-10-02T05:43:30.951Z,213.00
2022-10-02T05:44:25.900Z,209.00
2022-10-02T05:45:20.949Z,225.00
2022-10-02T05:46:16.032Z,234.00
2022-10-02T05:47:11.109Z,251.00
2022-10-02T05:48:06.167Z,274.00
2022-10-02T05:49:01.259Z,298.00
2022-10-02T05:49:56.312Z,315.00
2022-10-02T05:50:51.475Z,341.00
2022-10-02T05:51:46.573Z,369.00
2022-10-02T05:52:41.799Z,441.00
2022-10-02T05:53:36.747Z,514.00
2022-10-02T05:54:31.801Z,576.00
2022-10-02T05:55:26.848Z,589.00
2022-10-02T05:56:21.916Z,621.00
2022-10-02T05:57:16.956Z,621.00
2022-10-02T05:58:12.064Z,609.00
2022-10-02T05:59:07.123Z,623.00
2022-10-02T06:00:02.146Z,569.00
2022-10-02T06:01:11.924Z,600.00
2022-10-02T06:01:52.314Z,587.00
2022-10-02T06:02:47.351Z,592.00
2022-10-02T06:03:42.453Z,583.00
2022-10-02T06:04:37.614Z,661.00
2022-10-02T06:05:32.704Z,729.00
2022-10-02T06:06:27.782Z,693.00
2022-10-02T06:07:22.792Z,763.00
2022-10-02T06:08:17.894Z,702.00
2022-10-02T06:09:20.098Z,706.00
2022-10-02T06:10:12.266Z,696.00
2022-10-02T06:11:07.334Z,654.00
2022-10-02T06:12:02.381Z,605.00
2022-10-02T06:12:57.393Z,520.00
2022-10-02T06:13:52.613Z,493.00
2022-10-02T06:14:50.731Z,507.00
2022-10-02T06:15:42.619Z,572.00
2022-10-02T06:16:37.930Z,669.00
2022-10-02T06:17:32.797Z,799.00
2022-10-02T06:18:27.877Z,952.00
2022-10-02T06:19:22.952Z,1038.00
2022-10-02T06:20:18.080Z,1131.00
2022-10-02T06:21:13.767Z,1229.00
2022-10-02T06:22:09.522Z,1269.00
2022-10-02T06:23:04.945Z,1246.00
2022-10-02T06:24:00.305Z,1330.00
2022-10-02T06:24:55.817Z,1346.00
2022-10-02T06:25:51.108Z,1388.00
2022-10-02T06:26:46.482Z,1346.00
2022-10-02T06:27:41.866Z,1275.00
2022-10-02T06:28:37.246Z,1395.00
2022-10-02T06:29:32.635Z,1291.00
2022-10-02T06:30:27.999Z,1357.00
2022-10-02T06:31:23.415Z,1443.00
2022-10-02T06:32:18.926Z,1575.00
2022-10-02T06:33:14.354Z,1666.00
2022-10-02T06:34:09.745Z,1765.00
2022-10-02T06:35:05.270Z,1907.00
2022-10-02T06:36:00.384Z,2166.00
2022-10-02T06:36:55.444Z,2210.00
2022-10-02T06:37:50.671Z,2393.00
2022-10-02T06:38:45.550Z,2402.00
2022-10-02T06:39:40.670Z,2371.00
2022-10-02T06:40:35.630Z,2260.00
2022-10-02T06:41:30.793Z,2305.00
2022-10-02T06:42:25.957Z,2323.00
2022-10-02T06:43:20.978Z,2496.00
2022-10-02T06:44:16.045Z,2644.00
2022-10-02T06:45:11.091Z,2667.00
2022-10-02T06:46:06.105Z,2339.00
2022-10-02T06:47:01.177Z,2188.00
2022-10-02T06:47:56.206Z,2199.00
2022-10-02T06:48:51.216Z,2345.00
2022-10-02T06:49:46.230Z,2661.00
2022-10-02T06:50:41.278Z,2856.00
2022-10-02T06:51:36.280Z,3029.00
2022-10-02T06:52:35.748Z,3213.00
2022-10-02T06:53:27.427Z,3682.00
2022-10-02T06:54:21.435Z,3814.00
2022-10-02T06:55:16.461Z,4236.00
2022-10-02T06:56:11.486Z,3803.00
2022-10-02T06:57:06.512Z,3614.00
2022-10-02T06:58:01.575Z,3665.00
2022-10-02T06:58:56.769Z,3546.00
2022-10-02T06:59:51.801Z,3629.00
2022-10-02T07:00:46.905Z,3869.00
2022-10-02T07:01:41.971Z,4272.00
2022-10-02T07:02:36.964Z,4606.00
2022-10-02T07:03:32.022Z,4634.00
2022-10-02T07:04:27.055Z,4482.00
2022-10-02T07:05:22.075Z,4096.00
2022-10-02T07:06:17.120Z,3969.00
2022-10-02T07:07:12.127Z,4085.00
2022-10-02T07:08:07.196Z,4209.00
2022-10-02T07:09:02.761Z,4359.00
2022-10-02T07:09:58.181Z,4466.00
2022-10-02T07:10:53.703Z,4306.00
2022-10-02T07:11:48.739Z,3869.00
2022-10-02T07:12:43.778Z,3729.00
2022-10-02T07:13:38.867Z,3827.00
2022-10-02T07:14:33.899Z,3661.00
2022-10-02T07:15:28.938Z,3854.00
2022-10-02T07:16:23.974Z,3758.00
2022-10-02T07:17:22.209Z,3459.00
2022-10-02T07:18:16.535Z,3195.00
2022-10-02T07:19:11.610Z,3242.00
2022-10-02T07:20:06.626Z,3277.00
2022-10-02T07:21:01.742Z,3380.00
2022-10-02T07:21:56.748Z,3472.00
2022-10-02T07:22:51.847Z,3817.00
2022-10-02T07:23:46.773Z,4164.00
2022-10-02T07:24:41.826Z,4608.00
2022-10-02T07:25:37.159Z,4800.00
2022-10-02T07:26:32.714Z,5297.00
2022-10-02T07:27:27.993Z,6030.00
2022-10-02T07:28:23.488Z,6809.00
2022-10-02T07:29:19.017Z,8377.00
2022-10-02T07:30:14.534Z,10946.00
2022-10-02T07:31:09.961Z,11776.00
2022-10-02T07:32:05.470Z,13474.00
2022-10-02T07:33:01.070Z,13535.00
2022-10-02T07:33:56.506Z,12262.00
2022-10-02T07:34:51.983Z,12065.00
2022-10-02T07:35:47.529Z,14697.00
2022-10-02T07:36:43.021Z,19096.00
2022-10-02T07:37:38.629Z,15778.00
2022-10-02T07:38:34.161Z,12319.00
2022-10-02T07:39:29.636Z,10862.00
2022-10-02T07:40:25.150Z,10406.00
2022-10-02T07:41:24.147Z,9706.00
2022-10-02T07:42:19.452Z,9825.00
2022-10-02T07:43:14.816Z,10480.00
2022-10-02T07:44:10.324Z,11572.00
2022-10-02T07:45:05.915Z,13249.00
2022-10-02T07:46:01.333Z,13497.00
2022-10-02T07:46:56.704Z,12419.00
2022-10-02T07:47:52.276Z,11676.00
2022-10-02T07:48:47.780Z,11276.00
2022-10-02T07:49:43.314Z,10736.00
2022-10-02T07:50:38.826Z,10888.00
2022-10-02T07:51:34.445Z,10029.00
2022-10-02T07:52:30.221Z,9527.00
2022-10-02T07:53:25.802Z,10236.00
2022-10-02T07:54:21.282Z,11665.00
2022-10-02T07:55:16.543Z,10728.00
2022-10-02T07:56:11.629Z,9837.00
2022-10-02T07:57:09.882Z,9132.00
2022-10-02T07:58:01.724Z,10319.00
2022-10-02T07:58:56.796Z,10946.00
2022-10-02T07:59:51.803Z,12883.00
2022-10-02T08:00:46.940Z,12383.00
2022-10-02T08:01:42.024Z,12830.00
2022-10-02T08:02:37.062Z,12685.00
2022-10-02T08:03:32.202Z,14246.00
2022-10-02T08:04:27.658Z,12050.00
2022-10-02T08:05:23.004Z,10725.00
2022-10-02T08:06:18.457Z,11768.00
2022-10-02T08:07:14.182Z,11001.00
2022-10-02T08:08:09.354Z,10163.00
2022-10-02T08:09:04.850Z,13976.00
2022-10-02T08:10:00.403Z,12171.00
2022-10-02T08:10:55.447Z,16496.00
2022-10-02T08:11:50.521Z,12304.00
2022-10-02T08:12:45.639Z,15158.00
2022-10-02T08:13:40.744Z,16392.00
2022-10-02T08:14:35.803Z,13883.00
2022-10-02T08:15:30.949Z,16512.00
2022-10-02T08:16:25.951Z,16752.00
2022-10-02T08:17:21.026Z,20368.00
2022-10-02T08:18:33.774Z,13654.00
2022-10-02T08:19:12.117Z,18592.00
2022-10-02T08:20:07.336Z,15529.00
2022-10-02T08:21:02.956Z,12247.00
2022-10-02T08:21:58.462Z,16342.00
2022-10-02T08:22:54.102Z,14298.00
2022-10-02T08:23:49.573Z,14705.00
2022-10-02T08:24:45.144Z,27728.00
2022-10-02T08:25:40.798Z,15958.00
2022-10-02T08:26:36.326Z,49064.00
2022-10-02T08:27:31.712Z,16057.00
2022-10-02T08:28:27.253Z,20576.00
2022-10-02T08:29:22.560Z,21904.00
2022-10-02T08:30:18.090Z,20952.00
2022-10-02T08:31:13.492Z,13248.00
2022-10-02T08:32:08.985Z,13423.00
2022-10-02T08:33:04.347Z,14235.00
2022-10-02T08:33:59.435Z,10485.00
2022-10-02T08:34:54.493Z,10432.00
2022-10-02T08:35:49.872Z,24240.00
2022-10-02T08:36:44.879Z,11981.00
2022-10-02T08:37:39.951Z,11783.00
2022-10-02T08:38:35.038Z,11758.00
2022-10-02T08:39:30.102Z,16308.00
2022-10-02T08:40:25.329Z,11362.00
2022-10-02T08:41:20.360Z,12392.00
2022-10-02T08:42:15.470Z,52272.00
2022-10-02T08:43:11.784Z,13256.00
2022-10-02T08:44:07.169Z,26376.00
2022-10-02T08:45:02.750Z,49864.00
2022-10-02T08:45:58.214Z,59144.00
2022-10-02T08:46:53.648Z,54968.00
2022-10-02T08:47:49.229Z,49440.00
2022-10-02T08:48:44.597Z,33712.00
2022-10-02T08:49:39.968Z,31784.00
2022-10-02T08:50:35.518Z,47152.00
2022-10-02T08:51:32.029Z,61000.00
2022-10-02T08:52:27.545Z,29224.00
2022-10-02T08:53:23.299Z,57432.00
2022-10-02T08:54:18.574Z,58560.00
2022-10-02T08:55:14.042Z,60312.00
2022-10-02T08:56:09.427Z,60128.00
2022-10-02T08:57:04.985Z,55576.00
2022-10-02T08:58:00.555Z,47112.00
2022-10-02T08:58:56.025Z,27704.00
2022-10-02T08:59:52.378Z,50840.00
2022-10-02T09:00:47.767Z,64904.00
2022-10-02T09:01:43.305Z,64768.00
2022-10-02T09:02:38.949Z,51208.00
2022-10-02T09:03:34.410Z,28896.00
2022-10-02T09:04:29.902Z,59280.00
2022-10-02T09:05:25.450Z,53736.00
2022-10-02T09:06:21.710Z,36472.00
2022-10-02T09:07:16.489Z,52896.00
2022-10-02T09:08:11.882Z,26720.00
2022-10-02T09:09:07.388Z,20736.00
2022-10-02T09:10:02.424Z,18000.00
2022-10-02T09:10:57.575Z,22264.00
2022-10-02T09:11:52.537Z,65535.00
2022-10-02T09:12:47.804Z,23784.00
2022-10-02T09:13:42.800Z,20632.00
2022-10-02T09:14:37.837Z,20968.00
2022-10-02T09:15:32.854Z,32032.00
2022-10-02T09:16:28.122Z,58528.00
2022-10-02T09:17:23.254Z,65016.00
2022-10-02T09:18:18.146Z,54112.00
2022-10-02T09:19:14.889Z,24552.00
2022-10-02T09:20:10.103Z,57720.00
2022-10-02T09:21:09.310Z,23032.00
2022-10-02T09:22:02.211Z,29712.00
2022-10-02T09:22:55.788Z,18704.00
2022-10-02T09:23:51.020Z,58632.00
2022-10-02T09:24:46.418Z,55624.00
2022-10-02T09:25:41.829Z,53360.00
2022-10-02T09:26:37.832Z,15503.00
2022-10-02T09:27:32.946Z,24152.00
2022-10-02T09:28:28.619Z,18880.00
2022-10-02T09:29:23.855Z,22984.00
2022-10-02T09:30:19.476Z,20776.00
2022-10-02T09:31:15.328Z,27904.00
2022-10-02T09:32:10.604Z,21032.00
2022-10-02T09:33:06.298Z,17432.00
2022-10-02T09:34:01.420Z,26496.00
2022-10-02T09:34:56.953Z,49336.00
2022-10-02T09:35:52.066Z,41512.00
2022-10-02T09:36:47.187Z,26280.00
2022-10-02T09:37:42.188Z,14892.00
2022-10-02T09:38:39.242Z,11996.00
2022-10-02T09:39:32.299Z,17584.00
2022-10-02T09:40:27.350Z,19856.00
2022-10-02T09:41:22.462Z,16287.00
2022-10-02T09:42:20.123Z,21240.00
2022-10-02T09:43:15.134Z,34936.00
2022-10-02T09:44:10.278Z,18896.00
2022-10-02T09:45:05.232Z,18824.00
2022-10-02T09:46:00.376Z,54264.00
2022-10-02T09:46:55.335Z,13766.00
2022-10-02T09:47:50.448Z,15551.00
2022-10-02T09:48:45.736Z,26560.00
2022-10-02T09:49:40.912Z,24408.00
2022-10-02T09:50:36.432Z,24552.00
2022-10-02T09:51:32.118Z,65535.00
2022-10-02T09:52:27.503Z,23016.00
2022-10-02T09:53:23.015Z,28400.00
2022-10-02T09:54:18.650Z,15891.00
2022-10-02T09:55:14.203Z,65535.00
2022-10-02T09:56:09.794Z,16049.00
2022-10-02T09:57:05.600Z,12349.00
2022-10-02T09:58:01.151Z,14866.00
2022-10-02T09:58:56.191Z,20624.00
2022-10-02T09:59:51.293Z,13601.00
2022-10-02T10:00:46.449Z,36288.00
2022-10-02T10:01:41.445Z,58048.00
2022-10-02T10:02:36.496Z,13163.00
2022-10-02T10:03:31.416Z,65535.00
2022-10-02T10:04:33.874Z,49416.00
2022-10-02T10:05:24.301Z,65535.00
2022-10-02T10:06:18.340Z,65535.00
2022-10-02T10:07:16.279Z,19072.00
2022-10-02T10:08:09.658Z,19040.00
2022-10-02T10:09:04.611Z,36272.00
2022-10-02T10:10:00.296Z,14093.00
2022-10-02T10:10:55.751Z,14962.00
2022-10-02T10:11:51.079Z,16085.00
2022-10-02T10:12:46.607Z,65535.00
2022-10-02T10:13:41.905Z,25976.00
2022-10-02T10:14:36.972Z,29688.00
2022-10-02T10:15:32.018Z,14784.00
2022-10-02T10:16:27.133Z,16936.00
2022-10-02T10:17:22.178Z,18008.00
2022-10-02T10:18:17.168Z,22088.00
2022-10-02T10:19:12.226Z,19000.00
2022-10-02T10:20:07.287Z,20784.00
2022-10-02T10:21:02.395Z,16312.00
2022-10-02T10:21:57.443Z,13429.00
2022-10-02T10:22:52.573Z,14651.00
2022-10-02T10:23:47.527Z,19920.00
2022-10-02T10:24:42.716Z,21496.00
2022-10-02T10:25:38.396Z,17192.00
2022-10-02T10:26:33.919Z,12051.00
2022-10-02T10:27:29.365Z,13686.00
2022-10-02T10:28:24.893Z,14703.00
2022-10-02T10:29:20.370Z,14316.00
2022-10-02T10:30:15.695Z,12848.00
2022-10-02T10:31:11.344Z,15342.00
2022-10-02T10:32:06.828Z,13072.00
2022-10-02T10:33:02.432Z,12232.00
2022-10-02T10:33:58.003Z,14972.00
2022-10-02T10:34:53.342Z,13763.00
2022-10-02T10:35:48.677Z,11447.00
2022-10-02T10:36:46.706Z,13275.00
2022-10-02T10:37:39.316Z,15617.00
2022-10-02T10:38:34.447Z,18952.00
2022-10-02T10:39:29.492Z,17680.00
2022-10-02T10:40:24.420Z,13567.00
2022-10-02T10:41:19.651Z,13978.00
2022-10-02T10:42:14.619Z,15431.00
2022-10-02T10:43:12.375Z,18784.00
2022-10-02T10:44:06.667Z,13147.00
2022-10-02T10:45:01.742Z,13136.00
2022-10-02T10:45:56.851Z,13573.00
2022-10-02T10:46:51.830Z,12520.00
2022-10-02T10:47:46.893Z,8872.00
2022-10-02T10:48:44.810Z,10505.00
2022-10-02T10:49:38.023Z,10064.00
2022-10-02T10:50:32.107Z,8898.00
2022-10-02T10:51:27.620Z,12088.00
2022-10-02T10:52:22.898Z,11995.00
2022-10-02T10:53:18.434Z,12830.00
2022-10-02T10:54:13.815Z,12529.00
2022-10-02T10:55:09.445Z,13218.00
2022-10-02T10:56:04.939Z,13896.00
2022-10-02T10:57:00.009Z,13457.00
2022-10-02T10:57:55.093Z,12794.00
2022-10-02T10:58:50.193Z,11787.00
2022-10-02T10:59:45.308Z,12072.00
2022-10-02T11:00:40.312Z,14194.00
2022-10-02T11:01:35.837Z,11559.00
2022-10-02T11:02:30.565Z,10209.00
2022-10-02T11:03:25.618Z,10231.00
2022-10-02T11:04:20.700Z,14747.00
2022-10-02T11:05:15.656Z,17296.00
2022-10-02T11:06:10.886Z,17608.00
2022-10-02T11:07:05.987Z,15182.00
2022-10-02T11:08:01.124Z,13392.00
2022-10-02T11:08:56.064Z,13590.00
2022-10-02T11:09:51.193Z,13418.00
2022-10-02T11:10:46.414Z,14039.00
2022-10-02T11:11:41.509Z,15443.00
2022-10-02T11:12:36.488Z,17512.00
2022-10-02T11:13:34.134Z,21224.00
2022-10-02T11:14:29.567Z,21456.00
2022-10-02T11:15:24.969Z,20712.00
2022-10-02T11:16:20.679Z,17832.00
2022-10-02T11:17:16.010Z,16188.00
2022-10-02T11:18:11.526Z,14024.00
2022-10-02T11:19:07.002Z,13690.00
2022-10-02T11:20:02.562Z,16242.00
2022-10-02T11:20:58.058Z,14823.00
2022-10-02T11:21:53.572Z,12912.00
2022-10-02T11:22:49.193Z,11162.00
2022-10-02T11:23:44.522Z,14551.00
2022-10-02T11:24:40.017Z,17768.00
2022-10-02T11:25:35.552Z,18608.00
2022-10-02T11:26:30.891Z,17808.00
2022-10-02T11:27:26.037Z,20584.00
2022-10-02T11:28:21.143Z,23216.00
2022-10-02T11:29:16.136Z,21712.00
2022-10-02T11:30:11.594Z,19112.00
2022-10-02T11:31:06.436Z,14231.00
2022-10-02T11:32:01.556Z,17232.00
2022-10-02T11:32:56.486Z,22512.00